sensor_id;sensor_type;location;lat;lon;timestamp;P1;durP1;ratioP1;P2;durP2;ratioP2
18100;SDS011;9177;49.156;8.142;2023-07-13T00:02:24;5.25;;;4.88;;
18100;SDS011;9177;49.156;8.142;2023-07-13T00:04:51;4.97;;;4.55;;
18100;SDS011;9177;49.156;8.142;2023-07-13T00:07:24;4.88;;;4.47;;
18100;SDS011;9177;49.156;8.142;2023-07-13T00:09:51;4.85;;;4.55;;
18100;SDS011;9177;49.156;8.142;2023-07-13T00:12:24;5.40;;;4.90;;
18100;SDS011;9177;49.156;8.142;2023-07-13T00:14:54;4.30;;;4.00;;
18100;SDS011;9177;49.156;8.142;2023-07-13T00:17:22;4.80;;;4.50;;
18100;SDS011;9177;49.156;8.142;2023-07-13T00:19:49;5.03;;;4.60;;
18100;SDS011;9177;49.156;8.142;2023-07-13T00:22:22;5.00;;;4.60;;
18100;SDS011;9177;49.156;8.142;2023-07-13T00:24:50;4.60;;;4.30;;
18100;SDS011;9177;49.156;8.142;2023-07-13T00:27:18;4.88;;;4.47;;
18100;SDS011;9177;49.156;8.142;2023-07-13T00:29:46;4.55;;;4.25;;
18100;SDS011;9177;49.156;8.142;2023-07-13T00:32:13;4.40;;;4.10;;
18100;SDS011;9177;49.156;8.142;2023-07-13T00:34:41;4.78;;;4.47;;
18100;SDS011;9177;49.156;8.142;2023-07-13T00:39:54;4.30;;;4.10;;
18100;SDS011;9177;49.156;8.142;2023-07-13T00:42:23;4.55;;;4.25;;
18100;SDS011;9177;49.156;8.142;2023-07-13T00:45:05;4.38;;;4.13;;
18100;SDS011;9177;49.156;8.142;2023-07-13T00:47:53;4.20;;;3.90;;
18100;SDS011;9177;49.156;8.142;2023-07-13T00:50:21;4.50;;;4.20;;
18100;SDS011;9177;49.156;8.142;2023-07-13T00:52:50;4.43;;;4.13;;
18100;SDS011;9177;49.156;8.142;2023-07-13T00:55:23;3.95;;;3.75;;
18100;SDS011;9177;49.156;8.142;2023-07-13T00:57:59;4.50;;;4.20;;
18100;SDS011;9177;49.156;8.142;2023-07-13T01:00:27;4.65;;;4.35;;
18100;SDS011;9177;49.156;8.142;2023-07-13T01:02:56;4.40;;;4.10;;
18100;SDS011;9177;49.156;8.142;2023-07-13T01:05:23;4.28;;;4.00;;
18100;SDS011;9177;49.156;8.142;2023-07-13T01:07:51;4.43;;;4.13;;
18100;SDS011;9177;49.156;8.142;2023-07-13T01:10:21;4.38;;;4.07;;
18100;SDS011;9177;49.156;8.142;2023-07-13T01:12:51;4.45;;;4.15;;
18100;SDS011;9177;49.156;8.142;2023-07-13T01:15:37;4.10;;;3.90;;
18100;SDS011;9177;49.156;8.142;2023-07-13T01:18:05;4.32;;;4.03;;
18100;SDS011;9177;49.156;8.142;2023-07-13T01:20:37;4.05;;;3.83;;
18100;SDS011;9177;49.156;8.142;2023-07-13T01:23:07;4.05;;;3.75;;
18100;SDS011;9177;49.156;8.142;2023-07-13T01:25:36;4.10;;;3.90;;
18100;SDS011;9177;49.156;8.142;2023-07-13T01:28:04;3.88;;;3.58;;
18100;SDS011;9177;49.156;8.142;2023-07-13T01:30:36;4.35;;;4.05;;
18100;SDS011;9177;49.156;8.142;2023-07-13T01:33:06;3.95;;;3.70;;
18100;SDS011;9177;49.156;8.142;2023-07-13T01:35:36;4.38;;;3.97;;
18100;SDS011;9177;49.156;8.142;2023-07-13T01:38:04;4.00;;;3.70;;
18100;SDS011;9177;49.156;8.142;2023-07-13T01:40:34;4.10;;;3.80;;
18100;SDS011;9177;49.156;8.142;2023-07-13T01:43:02;3.95;;;3.65;;
18100;SDS011;9177;49.156;8.142;2023-07-13T01:45:30;4.45;;;4.15;;
18100;SDS011;9177;49.156;8.142;2023-07-13T01:47:57;3.70;;;3.40;;
18100;SDS011;9177;49.156;8.142;2023-07-13T01:50:24;4.10;;;3.80;;
18100;SDS011;9177;49.156;8.142;2023-07-13T01:52:52;3.85;;;3.63;;
18100;SDS011;9177;49.156;8.142;2023-07-13T01:55:23;4.45;;;4.15;;
18100;SDS011;9177;49.156;8.142;2023-07-13T01:57:51;3.72;;;3.42;;
18100;SDS011;9177;49.156;8.142;2023-07-13T02:00:27;3.28;;;3.08;;
18100;SDS011;9177;49.156;8.142;2023-07-13T02:02:55;3.95;;;3.65;;
18100;SDS011;9177;49.156;8.142;2023-07-13T02:05:24;3.67;;;3.45;;
18100;SDS011;9177;49.156;8.142;2023-07-13T02:07:53;4.28;;;3.97;;
18100;SDS011;9177;49.156;8.142;2023-07-13T02:10:20;3.78;;;3.58;;
18100;SDS011;9177;49.156;8.142;2023-07-13T02:12:48;3.88;;;3.65;;
18100;SDS011;9177;49.156;8.142;2023-07-13T02:15:19;3.65;;;3.45;;
18100;SDS011;9177;49.156;8.142;2023-07-13T02:17:54;3.65;;;3.40;;
18100;SDS011;9177;49.156;8.142;2023-07-13T02:20:22;3.67;;;3.47;;
18100;SDS011;9177;49.156;8.142;2023-07-13T02:22:49;3.67;;;3.38;;
18100;SDS011;9177;49.156;8.142;2023-07-13T02:25:16;3.72;;;3.53;;
18100;SDS011;9177;49.156;8.142;2023-07-13T02:27:42;3.55;;;3.35;;
18100;SDS011;9177;49.156;8.142;2023-07-13T02:30:10;3.60;;;3.40;;
18100;SDS011;9177;49.156;8.142;2023-07-13T02:32:45;3.60;;;3.40;;
18100;SDS011;9177;49.156;8.142;2023-07-13T02:35:12;3.60;;;3.40;;
18100;SDS011;9177;49.156;8.142;2023-07-13T02:37:39;3.78;;;3.58;;
18100;SDS011;9177;49.156;8.142;2023-07-13T02:40:06;3.50;;;3.30;;
18100;SDS011;9177;49.156;8.142;2023-07-13T02:42:34;3.78;;;3.58;;
18100;SDS011;9177;49.156;8.142;2023-07-13T02:45:01;3.40;;;3.20;;
18100;SDS011;9177;49.156;8.142;2023-07-13T02:47:28;3.55;;;3.35;;
18100;SDS011;9177;49.156;8.142;2023-07-13T02:49:56;3.20;;;3.00;;
18100;SDS011;9177;49.156;8.142;2023-07-13T02:52:24;3.33;;;3.13;;
18100;SDS011;9177;49.156;8.142;2023-07-13T02:54:54;3.25;;;3.05;;
18100;SDS011;9177;49.156;8.142;2023-07-13T02:57:27;3.60;;;3.40;;
18100;SDS011;9177;49.156;8.142;2023-07-13T02:59:58;3.88;;;3.58;;
18100;SDS011;9177;49.156;8.142;2023-07-13T03:02:25;3.50;;;3.30;;
18100;SDS011;9177;49.156;8.142;2023-07-13T03:04:53;3.63;;;3.42;;
18100;SDS011;9177;49.156;8.142;2023-07-13T03:07:22;3.30;;;3.10;;
18100;SDS011;9177;49.156;8.142;2023-07-13T03:09:53;3.35;;;3.15;;
18100;SDS011;9177;49.156;8.142;2023-07-13T03:12:22;3.13;;;2.92;;
18100;SDS011;9177;49.156;8.142;2023-07-13T03:14:49;3.10;;;2.90;;
18100;SDS011;9177;49.156;8.142;2023-07-13T03:17:18;3.63;;;3.33;;
18100;SDS011;9177;49.156;8.142;2023-07-13T03:19:45;3.05;;;2.85;;
18100;SDS011;9177;49.156;8.142;2023-07-13T03:22:14;3.42;;;3.22;;
18100;SDS011;9177;49.156;8.142;2023-07-13T03:24:43;3.58;;;3.38;;
18100;SDS011;9177;49.156;8.142;2023-07-13T03:27:13;3.30;;;3.10;;
18100;SDS011;9177;49.156;8.142;2023-07-13T03:29:41;3.53;;;3.33;;
18100;SDS011;9177;49.156;8.142;2023-07-13T03:32:08;3.00;;;2.80;;
18100;SDS011;9177;49.156;8.142;2023-07-13T03:34:35;3.65;;;3.40;;
18100;SDS011;9177;49.156;8.142;2023-07-13T03:37:01;3.35;;;3.05;;
18100;SDS011;9177;49.156;8.142;2023-07-13T03:39:28;2.90;;;2.70;;
18100;SDS011;9177;49.156;8.142;2023-07-13T03:41:57;3.00;;;2.80;;
18100;SDS011;9177;49.156;8.142;2023-07-13T03:44:24;3.22;;;3.00;;
18100;SDS011;9177;49.156;8.142;2023-07-13T03:46:51;3.50;;;3.30;;
18100;SDS011;9177;49.156;8.142;2023-07-13T03:49:24;2.85;;;2.65;;
18100;SDS011;9177;49.156;8.142;2023-07-13T03:51:59;3.33;;;3.13;;
18100;SDS011;9177;49.156;8.142;2023-07-13T03:54:29;3.20;;;3.00;;
18100;SDS011;9177;49.156;8.142;2023-07-13T03:56:58;2.80;;;2.65;;
18100;SDS011;9177;49.156;8.142;2023-07-13T03:59:25;3.30;;;3.10;;
18100;SDS011;9177;49.156;8.142;2023-07-13T04:01:52;3.22;;;3.03;;
18100;SDS011;9177;49.156;8.142;2023-07-13T04:04:22;3.15;;;2.95;;
18100;SDS011;9177;49.156;8.142;2023-07-13T04:06:49;3.40;;;3.17;;
18100;SDS011;9177;49.156;8.142;2023-07-13T04:09:18;3.03;;;2.83;;
18100;SDS011;9177;49.156;8.142;2023-07-13T04:11:46;3.17;;;2.97;;
18100;SDS011;9177;49.156;8.142;2023-07-13T04:14:14;3.10;;;2.90;;
18100;SDS011;9177;49.156;8.142;2023-07-13T04:16:41;3.25;;;3.05;;
18100;SDS011;9177;49.156;8.142;2023-07-13T04:19:08;3.45;;;3.15;;
18100;SDS011;9177;49.156;8.142;2023-07-13T04:21:36;3.03;;;2.83;;
18100;SDS011;9177;49.156;8.142;2023-07-13T04:24:03;2.90;;;2.70;;
18100;SDS011;9177;49.156;8.142;2023-07-13T04:26:31;3.00;;;2.80;;
18100;SDS011;9177;49.156;8.142;2023-07-13T04:29:01;3.20;;;3.00;;
18100;SDS011;9177;49.156;8.142;2023-07-13T04:31:30;3.00;;;2.80;;
18100;SDS011;9177;49.156;8.142;2023-07-13T04:33:57;3.10;;;2.90;;
18100;SDS011;9177;49.156;8.142;2023-07-13T04:36:24;2.83;;;2.63;;
18100;SDS011;9177;49.156;8.142;2023-07-13T04:38:52;3.03;;;2.83;;
18100;SDS011;9177;49.156;8.142;2023-07-13T04:41:20;3.10;;;2.90;;
18100;SDS011;9177;49.156;8.142;2023-07-13T04:43:47;3.00;;;2.80;;
18100;SDS011;9177;49.156;8.142;2023-07-13T04:46:15;3.05;;;2.85;;
18100;SDS011;9177;49.156;8.142;2023-07-13T04:48:45;3.33;;;3.13;;
18100;SDS011;9177;49.156;8.142;2023-07-13T04:51:12;3.03;;;2.83;;
18100;SDS011;9177;49.156;8.142;2023-07-13T04:53:39;3.13;;;2.92;;
18100;SDS011;9177;49.156;8.142;2023-07-13T04:56:11;2.70;;;2.50;;
18100;SDS011;9177;49.156;8.142;2023-07-13T04:58:38;2.63;;;2.50;;
18100;SDS011;9177;49.156;8.142;2023-07-13T05:01:06;2.78;;;2.58;;
18100;SDS011;9177;49.156;8.142;2023-07-13T05:03:34;2.65;;;2.50;;
18100;SDS011;9177;49.156;8.142;2023-07-13T05:06:03;3.00;;;2.80;;
18100;SDS011;9177;49.156;8.142;2023-07-13T05:08:31;3.00;;;2.80;;
18100;SDS011;9177;49.156;8.142;2023-07-13T05:10:59;2.70;;;2.50;;
18100;SDS011;9177;49.156;8.142;2023-07-13T05:13:26;2.90;;;2.70;;
18100;SDS011;9177;49.156;8.142;2023-07-13T05:15:56;2.70;;;2.50;;
18100;SDS011;9177;49.156;8.142;2023-07-13T05:18:24;2.90;;;2.70;;
18100;SDS011;9177;49.156;8.142;2023-07-13T05:20:57;2.55;;;2.35;;
18100;SDS011;9177;49.156;8.142;2023-07-13T05:23:31;2.92;;;2.72;;
18100;SDS011;9177;49.156;8.142;2023-07-13T05:25:59;2.80;;;2.60;;
18100;SDS011;9177;49.156;8.142;2023-07-13T05:28:26;2.40;;;2.30;;
18100;SDS011;9177;49.156;8.142;2023-07-13T05:30:54;2.75;;;2.55;;
18100;SDS011;9177;49.156;8.142;2023-07-13T05:33:21;2.58;;;2.38;;
18100;SDS011;9177;49.156;8.142;2023-07-13T05:35:59;2.90;;;2.70;;
18100;SDS011;9177;49.156;8.142;2023-07-13T05:38:26;2.80;;;2.60;;
18100;SDS011;9177;49.156;8.142;2023-07-13T05:40:55;2.30;;;2.20;;
18100;SDS011;9177;49.156;8.142;2023-07-13T05:43:23;2.33;;;2.22;;
18100;SDS011;9177;49.156;8.142;2023-07-13T05:45:51;2.50;;;2.30;;
18100;SDS011;9177;49.156;8.142;2023-07-13T05:48:19;2.60;;;2.40;;
18100;SDS011;9177;49.156;8.142;2023-07-13T05:50:50;3.17;;;2.97;;
18100;SDS011;9177;49.156;8.142;2023-07-13T05:53:17;2.40;;;2.20;;
18100;SDS011;9177;49.156;8.142;2023-07-13T05:55:45;2.58;;;2.38;;
18100;SDS011;9177;49.156;8.142;2023-07-13T05:58:16;2.75;;;2.55;;
18100;SDS011;9177;49.156;8.142;2023-07-13T06:00:43;2.42;;;2.28;;
18100;SDS011;9177;49.156;8.142;2023-07-13T06:03:16;2.70;;;2.50;;
18100;SDS011;9177;49.156;8.142;2023-07-13T06:05:43;2.33;;;2.22;;
18100;SDS011;9177;49.156;8.142;2023-07-13T06:08:10;2.53;;;2.33;;
18100;SDS011;9177;49.156;8.142;2023-07-13T06:10:37;2.55;;;2.35;;
18100;SDS011;9177;49.156;8.142;2023-07-13T06:13:04;2.75;;;2.55;;
18100;SDS011;9177;49.156;8.142;2023-07-13T06:15:33;2.50;;;2.30;;
18100;SDS011;9177;49.156;8.142;2023-07-13T06:18:00;2.50;;;2.30;;
18100;SDS011;9177;49.156;8.142;2023-07-13T06:20:37;2.30;;;2.20;;
18100;SDS011;9177;49.156;8.142;2023-07-13T06:23:03;2.13;;;2.03;;
18100;SDS011;9177;49.156;8.142;2023-07-13T06:25:30;2.33;;;2.20;;
18100;SDS011;9177;49.156;8.142;2023-07-13T06:27:57;2.78;;;2.58;;
18100;SDS011;9177;49.156;8.142;2023-07-13T06:30:24;2.30;;;2.20;;
18100;SDS011;9177;49.156;8.142;2023-07-13T06:32:52;2.50;;;2.40;;
18100;SDS011;9177;49.156;8.142;2023-07-13T06:35:20;2.10;;;2.00;;
18100;SDS011;9177;49.156;8.142;2023-07-13T06:37:47;2.47;;;2.28;;
18100;SDS011;9177;49.156;8.142;2023-07-13T06:40:14;2.13;;;2.00;;
18100;SDS011;9177;49.156;8.142;2023-07-13T06:42:41;2.25;;;2.05;;
18100;SDS011;9177;49.156;8.142;2023-07-13T06:45:08;2.38;;;2.20;;
18100;SDS011;9177;49.156;8.142;2023-07-13T06:47:36;2.35;;;2.15;;
18100;SDS011;9177;49.156;8.142;2023-07-13T06:50:12;2.33;;;2.22;;
18100;SDS011;9177;49.156;8.142;2023-07-13T06:52:39;2.05;;;1.95;;
18100;SDS011;9177;49.156;8.142;2023-07-13T06:55:06;2.40;;;2.30;;
18100;SDS011;9177;49.156;8.142;2023-07-13T06:57:33;3.17;;;2.20;;
18100;SDS011;9177;49.156;8.142;2023-07-13T07:00:00;2.53;;;1.80;;
18100;SDS011;9177;49.156;8.142;2023-07-13T07:02:27;2.15;;;1.85;;
18100;SDS011;9177;49.156;8.142;2023-07-13T07:04:54;4.05;;;1.63;;
18100;SDS011;9177;49.156;8.142;2023-07-13T07:07:24;3.33;;;1.70;;
18100;SDS011;9177;49.156;8.142;2023-07-13T07:09:51;3.53;;;1.65;;
18100;SDS011;9177;49.156;8.142;2023-07-13T07:12:18;3.20;;;1.10;;
18100;SDS011;9177;49.156;8.142;2023-07-13T07:14:45;4.68;;;1.60;;
18100;SDS011;9177;49.156;8.142;2023-07-13T07:17:12;4.80;;;1.13;;
18100;SDS011;9177;49.156;8.142;2023-07-13T07:19:39;3.75;;;2.53;;
18100;SDS011;9177;49.156;8.142;2023-07-13T07:22:07;3.42;;;2.25;;
18100;SDS011;9177;49.156;8.142;2023-07-13T07:24:36;3.00;;;2.20;;
18100;SDS011;9177;49.156;8.142;2023-07-13T07:27:03;3.47;;;1.63;;
18100;SDS011;9177;49.156;8.142;2023-07-13T07:29:41;2.22;;;1.30;;
18100;SDS011;9177;49.156;8.142;2023-07-13T07:32:08;2.22;;;1.60;;
18100;SDS011;9177;49.156;8.142;2023-07-13T07:34:35;3.20;;;1.58;;
18100;SDS011;9177;49.156;8.142;2023-07-13T07:37:02;2.28;;;1.10;;
18100;SDS011;9177;49.156;8.142;2023-07-13T07:39:29;2.95;;;1.25;;
18100;SDS011;9177;49.156;8.142;2023-07-13T07:41:58;1.92;;;1.23;;
18100;SDS011;9177;49.156;8.142;2023-07-13T07:44:25;2.28;;;1.30;;
18100;SDS011;9177;49.156;8.142;2023-07-13T07:46:53;2.42;;;1.20;;
18100;SDS011;9177;49.156;8.142;2023-07-13T07:49:20;3.33;;;1.23;;
18100;SDS011;9177;49.156;8.142;2023-07-13T07:51:49;2.00;;;1.10;;
18100;SDS011;9177;49.156;8.142;2023-07-13T07:54:23;2.28;;;1.20;;
18100;SDS011;9177;49.156;8.142;2023-07-13T07:56:53;1.90;;;1.10;;
18100;SDS011;9177;49.156;8.142;2023-07-13T07:59:21;3.30;;;1.02;;
18100;SDS011;9177;49.156;8.142;2023-07-13T08:01:48;1.67;;;1.35;;
18100;SDS011;9177;49.156;8.142;2023-07-13T08:04:15;2.22;;;1.20;;
18100;SDS011;9177;49.156;8.142;2023-07-13T08:06:42;2.90;;;1.23;;
18100;SDS011;9177;49.156;8.142;2023-07-13T08:09:09;2.55;;;1.13;;
18100;SDS011;9177;49.156;8.142;2023-07-13T08:11:36;1.85;;;1.10;;
18100;SDS011;9177;49.156;8.142;2023-07-13T08:14:03;2.45;;;1.13;;
18100;SDS011;9177;49.156;8.142;2023-07-13T08:16:31;4.22;;;1.20;;
18100;SDS011;9177;49.156;8.142;2023-07-13T08:18:58;2.75;;;1.15;;
18100;SDS011;9177;49.156;8.142;2023-07-13T08:21:25;3.42;;;1.40;;
18100;SDS011;9177;49.156;8.142;2023-07-13T08:23:53;3.33;;;1.30;;
18100;SDS011;9177;49.156;8.142;2023-07-13T08:26:20;2.20;;;1.25;;
18100;SDS011;9177;49.156;8.142;2023-07-13T08:28:47;3.53;;;1.13;;
18100;SDS011;9177;49.156;8.142;2023-07-13T08:31:17;1.85;;;1.23;;
18100;SDS011;9177;49.156;8.142;2023-07-13T08:33:45;3.33;;;1.75;;
18100;SDS011;9177;49.156;8.142;2023-07-13T08:36:15;2.75;;;2.00;;
18100;SDS011;9177;49.156;8.142;2023-07-13T08:39:12;2.95;;;2.17;;
18100;SDS011;9177;49.156;8.142;2023-07-13T08:41:39;5.32;;;3.08;;
18100;SDS011;9177;49.156;8.142;2023-07-13T08:44:07;3.63;;;2.28;;
18100;SDS011;9177;49.156;8.142;2023-07-13T08:46:44;2.88;;;1.90;;
18100;SDS011;9177;49.156;8.142;2023-07-13T08:49:15;3.80;;;1.50;;
18100;SDS011;9177;49.156;8.142;2023-07-13T08:51:48;3.60;;;1.67;;
18100;SDS011;9177;49.156;8.142;2023-07-13T08:54:19;2.83;;;1.50;;
18100;SDS011;9177;49.156;8.142;2023-07-13T08:56:49;3.40;;;1.20;;
18100;SDS011;9177;49.156;8.142;2023-07-13T08:59:19;6.32;;;1.23;;
18100;SDS011;9177;49.156;8.142;2023-07-13T09:01:57;4.05;;;2.10;;
18100;SDS011;9177;49.156;8.142;2023-07-13T09:04:45;5.72;;;3.05;;
18100;SDS011;9177;49.156;8.142;2023-07-13T09:07:21;4.15;;;2.25;;
18100;SDS011;9177;49.156;8.142;2023-07-13T09:09:58;1.67;;;1.30;;
18100;SDS011;9177;49.156;8.142;2023-07-13T09:12:36;3.03;;;1.13;;
18100;SDS011;9177;49.156;8.142;2023-07-13T09:15:17;3.15;;;1.50;;
18100;SDS011;9177;49.156;8.142;2023-07-13T09:17:51;3.17;;;1.25;;
18100;SDS011;9177;49.156;8.142;2023-07-13T09:20:27;2.33;;;1.23;;
18100;SDS011;9177;49.156;8.142;2023-07-13T09:23:00;2.95;;;1.25;;
18100;SDS011;9177;49.156;8.142;2023-07-13T09:25:33;2.13;;;1.13;;
18100;SDS011;9177;49.156;8.142;2023-07-13T09:28:02;1.88;;;1.17;;
18100;SDS011;9177;49.156;8.142;2023-07-13T09:30:38;1.60;;;1.10;;
18100;SDS011;9177;49.156;8.142;2023-07-13T09:33:11;3.30;;;1.30;;
18100;SDS011;9177;49.156;8.142;2023-07-13T09:35:40;1.88;;;1.10;;
18100;SDS011;9177;49.156;8.142;2023-07-13T09:38:11;7.35;;;4.03;;
18100;SDS011;9177;49.156;8.142;2023-07-13T09:40:59;7.97;;;4.60;;
18100;SDS011;9177;49.156;8.142;2023-07-13T09:43:35;5.18;;;3.03;;
18100;SDS011;9177;49.156;8.142;2023-07-13T09:46:02;2.90;;;2.00;;
18100;SDS011;9177;49.156;8.142;2023-07-13T09:48:33;4.40;;;1.95;;
18100;SDS011;9177;49.156;8.142;2023-07-13T09:51:06;3.42;;;1.15;;
18100;SDS011;9177;49.156;8.142;2023-07-13T09:53:43;4.22;;;2.00;;
18100;SDS011;9177;49.156;8.142;2023-07-13T09:56:19;5.25;;;2.00;;
18100;SDS011;9177;49.156;8.142;2023-07-13T09:58:48;4.80;;;1.30;;
18100;SDS011;9177;49.156;8.142;2023-07-13T10:01:17;1.58;;;1.02;;
18100;SDS011;9177;49.156;8.142;2023-07-13T10:04:02;2.45;;;1.50;;
18100;SDS011;9177;49.156;8.142;2023-07-13T10:06:40;4.28;;;2.10;;
18100;SDS011;9177;49.156;8.142;2023-07-13T10:09:08;6.18;;;1.70;;
18100;SDS011;9177;49.156;8.142;2023-07-13T10:11:36;2.40;;;1.67;;
18100;SDS011;9177;49.156;8.142;2023-07-13T10:14:09;3.50;;;2.28;;
18100;SDS011;9177;49.156;8.142;2023-07-13T10:16:40;2.60;;;1.88;;
18100;SDS011;9177;49.156;8.142;2023-07-13T10:19:11;3.17;;;1.60;;
18100;SDS011;9177;49.156;8.142;2023-07-13T10:21:45;3.35;;;1.98;;
18100;SDS011;9177;49.156;8.142;2023-07-13T10:24:17;3.40;;;1.23;;
18100;SDS011;9177;49.156;8.142;2023-07-13T10:26:48;2.95;;;1.48;;
18100;SDS011;9177;49.156;8.142;2023-07-13T10:29:21;2.88;;;1.35;;
18100;SDS011;9177;49.156;8.142;2023-07-13T10:31:51;2.47;;;1.00;;
18100;SDS011;9177;49.156;8.142;2023-07-13T10:34:18;1.85;;;1.40;;
18100;SDS011;9177;49.156;8.142;2023-07-13T10:36:51;3.08;;;1.10;;
18100;SDS011;9177;49.156;8.142;2023-07-13T10:39:18;3.05;;;1.30;;
18100;SDS011;9177;49.156;8.142;2023-07-13T10:41:49;3.08;;;1.08;;
18100;SDS011;9177;49.156;8.142;2023-07-13T10:44:21;2.85;;;1.02;;
18100;SDS011;9177;49.156;8.142;2023-07-13T10:46:56;3.28;;;1.30;;
18100;SDS011;9177;49.156;8.142;2023-07-13T10:49:26;3.00;;;1.10;;
18100;SDS011;9177;49.156;8.142;2023-07-13T10:51:56;3.20;;;1.08;;
18100;SDS011;9177;49.156;8.142;2023-07-13T10:54:26;3.22;;;1.45;;
18100;SDS011;9177;49.156;8.142;2023-07-13T10:57:14;2.78;;;1.20;;
18100;SDS011;9177;49.156;8.142;2023-07-13T10:59:44;2.22;;;1.17;;
18100;SDS011;9177;49.156;8.142;2023-07-13T11:02:15;2.20;;;1.15;;
18100;SDS011;9177;49.156;8.142;2023-07-13T11:04:55;3.05;;;1.50;;
18100;SDS011;9177;49.156;8.142;2023-07-13T11:07:32;2.25;;;1.33;;
18100;SDS011;9177;49.156;8.142;2023-07-13T11:13:37;1.40;;;1.30;;
18100;SDS011;9177;49.156;8.142;2023-07-13T11:22:14;3.28;;;1.58;;
18100;SDS011;9177;49.156;8.142;2023-07-13T11:24:51;1.70;;;1.10;;
18100;SDS011;9177;49.156;8.142;2023-07-13T11:27:33;1.52;;;1.40;;
18100;SDS011;9177;49.156;8.142;2023-07-13T11:30:13;1.85;;;1.42;;
18100;SDS011;9177;49.156;8.142;2023-07-13T11:32:49;2.45;;;1.30;;
18100;SDS011;9177;49.156;8.142;2023-07-13T11:35:20;1.92;;;1.33;;
18100;SDS011;9177;49.156;8.142;2023-07-13T11:37:49;2.55;;;1.50;;
18100;SDS011;9177;49.156;8.142;2023-07-13T11:40:19;1.95;;;1.23;;
18100;SDS011;9177;49.156;8.142;2023-07-13T11:42:53;1.90;;;1.05;;
18100;SDS011;9177;49.156;8.142;2023-07-13T11:45:25;1.30;;;1.20;;
18100;SDS011;9177;49.156;8.142;2023-07-13T11:47:53;1.98;;;1.23;;
18100;SDS011;9177;49.156;8.142;2023-07-13T11:50:23;1.70;;;1.35;;
18100;SDS011;9177;49.156;8.142;2023-07-13T11:52:51;2.42;;;1.38;;
18100;SDS011;9177;49.156;8.142;2023-07-13T11:55:22;1.58;;;1.20;;
18100;SDS011;9177;49.156;8.142;2023-07-13T11:57:51;1.10;;;1.00;;
18100;SDS011;9177;49.156;8.142;2023-07-13T12:00:23;2.28;;;1.38;;
18100;SDS011;9177;49.156;8.142;2023-07-13T12:02:55;2.25;;;1.10;;
18100;SDS011;9177;49.156;8.142;2023-07-13T12:05:25;1.20;;;1.10;;
18100;SDS011;9177;49.156;8.142;2023-07-13T12:07:58;2.13;;;1.45;;
18100;SDS011;9177;49.156;8.142;2023-07-13T12:10:33;2.20;;;1.27;;
18100;SDS011;9177;49.156;8.142;2023-07-13T12:13:12;1.52;;;1.05;;
18100;SDS011;9177;49.156;8.142;2023-07-13T12:15:40;2.00;;;1.02;;
18100;SDS011;9177;49.156;8.142;2023-07-13T12:18:13;1.52;;;1.00;;
18100;SDS011;9177;49.156;8.142;2023-07-13T12:20:41;1.40;;;1.00;;
18100;SDS011;9177;49.156;8.142;2023-07-13T12:23:10;2.20;;;1.35;;
18100;SDS011;9177;49.156;8.142;2023-07-13T12:25:48;1.65;;;1.20;;
18100;SDS011;9177;49.156;8.142;2023-07-13T12:28:21;1.75;;;1.33;;
18100;SDS011;9177;49.156;8.142;2023-07-13T12:30:57;1.40;;;1.10;;
18100;SDS011;9177;49.156;8.142;2023-07-13T12:33:27;1.80;;;1.10;;
18100;SDS011;9177;49.156;8.142;2023-07-13T12:35:56;1.20;;;1.10;;
18100;SDS011;9177;49.156;8.142;2023-07-13T12:38:27;1.45;;;1.30;;
18100;SDS011;9177;49.156;8.142;2023-07-13T12:41:01;1.27;;;1.02;;
18100;SDS011;9177;49.156;8.142;2023-07-13T12:43:34;1.23;;;1.13;;
18100;SDS011;9177;49.156;8.142;2023-07-13T12:46:04;1.60;;;1.02;;
18100;SDS011;9177;49.156;8.142;2023-07-13T12:48:42;1.95;;;0.95;;
18100;SDS011;9177;49.156;8.142;2023-07-13T12:51:11;1.77;;;1.20;;
18100;SDS011;9177;49.156;8.142;2023-07-13T12:53:41;1.13;;;1.00;;
18100;SDS011;9177;49.156;8.142;2023-07-13T12:56:17;1.10;;;1.00;;
18100;SDS011;9177;49.156;8.142;2023-07-13T12:58:48;2.28;;;1.27;;
18100;SDS011;9177;49.156;8.142;2023-07-13T13:01:20;1.17;;;0.98;;
18100;SDS011;9177;49.156;8.142;2023-07-13T13:03:49;2.90;;;1.40;;
18100;SDS011;9177;49.156;8.142;2023-07-13T13:06:21;1.70;;;1.50;;
18100;SDS011;9177;49.156;8.142;2023-07-13T13:08:50;2.05;;;1.20;;
18100;SDS011;9177;49.156;8.142;2023-07-13T13:11:20;1.13;;;1.02;;
18100;SDS011;9177;49.156;8.142;2023-07-13T13:13:49;2.10;;;1.08;;
18100;SDS011;9177;49.156;8.142;2023-07-13T13:16:19;1.30;;;1.20;;
18100;SDS011;9177;49.156;8.142;2023-07-13T13:18:48;1.30;;;1.20;;
18100;SDS011;9177;49.156;8.142;2023-07-13T13:21:19;1.35;;;1.20;;
18100;SDS011;9177;49.156;8.142;2023-07-13T13:23:47;1.33;;;1.23;;
18100;SDS011;9177;49.156;8.142;2023-07-13T13:26:16;1.48;;;1.15;;
18100;SDS011;9177;49.156;8.142;2023-07-13T13:28:47;1.23;;;1.13;;
18100;SDS011;9177;49.156;8.142;2023-07-13T13:31:16;1.23;;;1.10;;
18100;SDS011;9177;49.156;8.142;2023-07-13T13:33:44;2.55;;;1.25;;
18100;SDS011;9177;49.156;8.142;2023-07-13T13:36:16;1.35;;;1.25;;
18100;SDS011;9177;49.156;8.142;2023-07-13T13:38:45;2.35;;;1.30;;
18100;SDS011;9177;49.156;8.142;2023-07-13T13:41:13;2.30;;;1.33;;
18100;SDS011;9177;49.156;8.142;2023-07-13T13:43:40;1.20;;;1.10;;
18100;SDS011;9177;49.156;8.142;2023-07-13T13:46:13;1.50;;;1.02;;
18100;SDS011;9177;49.156;8.142;2023-07-13T13:48:44;1.33;;;1.17;;
18100;SDS011;9177;49.156;8.142;2023-07-13T13:51:13;1.50;;;1.30;;
18100;SDS011;9177;49.156;8.142;2023-07-13T13:53:42;1.48;;;1.00;;
18100;SDS011;9177;49.156;8.142;2023-07-13T13:56:10;1.70;;;1.45;;
18100;SDS011;9177;49.156;8.142;2023-07-13T13:58:37;1.95;;;1.20;;
18100;SDS011;9177;49.156;8.142;2023-07-13T14:01:05;3.38;;;1.40;;
18100;SDS011;9177;49.156;8.142;2023-07-13T14:03:43;2.13;;;1.08;;
18100;SDS011;9177;49.156;8.142;2023-07-13T14:06:11;2.28;;;1.27;;
18100;SDS011;9177;49.156;8.142;2023-07-13T14:08:38;2.85;;;1.38;;
18100;SDS011;9177;49.156;8.142;2023-07-13T14:11:13;2.65;;;1.30;;
18100;SDS011;9177;49.156;8.142;2023-07-13T14:13:43;1.65;;;1.27;;
18100;SDS011;9177;49.156;8.142;2023-07-13T14:16:22;1.95;;;1.08;;
18100;SDS011;9177;49.156;8.142;2023-07-13T14:18:52;1.98;;;1.27;;
18100;SDS011;9177;49.156;8.142;2023-07-13T14:21:21;2.33;;;1.13;;
18100;SDS011;9177;49.156;8.142;2023-07-13T14:23:49;1.95;;;1.20;;
18100;SDS011;9177;49.156;8.142;2023-07-13T14:26:17;2.42;;;1.10;;
18100;SDS011;9177;49.156;8.142;2023-07-13T14:28:46;1.35;;;1.15;;
18100;SDS011;9177;49.156;8.142;2023-07-13T14:31:15;2.28;;;1.20;;
18100;SDS011;9177;49.156;8.142;2023-07-13T14:33:45;0.80;;;0.80;;
18100;SDS011;9177;49.156;8.142;2023-07-13T14:36:18;1.92;;;1.25;;
18100;SDS011;9177;49.156;8.142;2023-07-13T14:38:51;1.58;;;1.08;;
18100;SDS011;9177;49.156;8.142;2023-07-13T14:41:18;2.55;;;1.30;;
18100;SDS011;9177;49.156;8.142;2023-07-13T14:43:45;1.35;;;1.10;;
18100;SDS011;9177;49.156;8.142;2023-07-13T14:46:18;1.48;;;1.38;;
18100;SDS011;9177;49.156;8.142;2023-07-13T14:49:05;2.38;;;1.20;;
18100;SDS011;9177;49.156;8.142;2023-07-13T14:51:40;2.85;;;1.25;;
18100;SDS011;9177;49.156;8.142;2023-07-13T14:54:08;1.25;;;1.15;;
18100;SDS011;9177;49.156;8.142;2023-07-13T14:56:36;1.70;;;1.02;;
18100;SDS011;9177;49.156;8.142;2023-07-13T14:59:04;1.65;;;1.10;;
18100;SDS011;9177;49.156;8.142;2023-07-13T15:01:37;1.67;;;1.25;;
18100;SDS011;9177;49.156;8.142;2023-07-13T15:04:16;1.58;;;1.02;;
18100;SDS011;9177;49.156;8.142;2023-07-13T15:06:52;1.35;;;1.17;;
18100;SDS011;9177;49.156;8.142;2023-07-13T15:09:30;1.10;;;0.98;;
18100;SDS011;9177;49.156;8.142;2023-07-13T15:11:58;1.45;;;1.08;;
18100;SDS011;9177;49.156;8.142;2023-07-13T15:14:25;1.77;;;1.08;;
18100;SDS011;9177;49.156;8.142;2023-07-13T15:16:54;1.27;;;1.02;;
18100;SDS011;9177;49.156;8.142;2023-07-13T15:19:26;1.88;;;1.20;;
18100;SDS011;9177;49.156;8.142;2023-07-13T15:21:56;1.40;;;1.27;;
18100;SDS011;9177;49.156;8.142;2023-07-13T15:24:23;1.20;;;1.10;;
18100;SDS011;9177;49.156;8.142;2023-07-13T15:26:50;1.48;;;1.10;;
18100;SDS011;9177;49.156;8.142;2023-07-13T15:29:19;1.67;;;1.10;;
18100;SDS011;9177;49.156;8.142;2023-07-13T15:31:46;1.80;;;1.17;;